ITY674 LIRF-SBGR
Flight info
| Callsign | ITY674 |
|---|---|
| Flight time | N/A |
| Altitude | 19000 |
| Route | SOSAK DCT ESINO Z924 SUPUX/N0492F310 Z924 RIPAL DCT SOTAX T100 GOSOS/N0483F330 T100 TAVSI L82 RUNAX UL82 IBALU UN857 VEDOD A857 TERTO DCT ELNAN DCT GOMSU DCT BETAN DCT KOPUD DCT LALTO DCT REMGI N729 DEREV/N0483F340 N857 GUNET UN857 DELAX/N0487F360 UN857 ERETU UM661 TELIS/N0477F380 UM661 PUDON DCT ESMOX UZ73 DOPRU DCT EDSAS/N0456F240 Z18 RALYT DCT UGSEV DCT VUNOX DCT GR259 |
| Aircraft | A339/H-SADE1E2E3GHIJ3J5M1P2RWXY/LB2D1 |
Departure
| Time | N/A |
|---|---|
| Airport | Rome–Fiumicino Leonardo da Vinci International Airport (LIRF) |
Arrival
| Time | 2026-05-07 17:23 |
|---|---|
| Airport | São Paulo/Guarulhos–Governor André Franco Montoro International Airport (SBGR) |
| Time | Latitude | Longitude | Altitude | Speed | Heading |
|---|---|---|---|---|---|
| 2026-05-07 16:42 | -19.95830 | -44.35679 | 38147 ft | 409 kts | 214° |
| 2026-05-07 16:42 | -20.00440 | -44.39238 | 38151 ft | 410 kts | 214° |
| 2026-05-07 16:43 | -20.05095 | -44.42831 | 38156 ft | 410 kts | 215° |
| 2026-05-07 16:43 | -20.09747 | -44.46425 | 38160 ft | 410 kts | 215° |
| 2026-05-07 16:44 | -20.14468 | -44.50081 | 38162 ft | 410 kts | 214° |
| 2026-05-07 16:44 | -20.19174 | -44.53724 | 38156 ft | 410 kts | 215° |
| 2026-05-07 16:45 | -20.23800 | -44.57309 | 38158 ft | 410 kts | 215° |
| 2026-05-07 16:45 | -20.28437 | -44.60901 | 38148 ft | 410 kts | 215° |
| 2026-05-07 16:46 | -20.33073 | -44.64499 | 38145 ft | 410 kts | 215° |
| 2026-05-07 16:46 | -20.37732 | -44.68118 | 38150 ft | 410 kts | 216° |
| 2026-05-07 16:47 | -20.42366 | -44.71719 | 38149 ft | 410 kts | 215° |
| 2026-05-07 16:47 | -20.48679 | -44.76626 | 38151 ft | 410 kts | 216° |
| 2026-05-07 16:48 | -20.57786 | -44.83722 | 38154 ft | 410 kts | 216° |
| 2026-05-07 16:48 | -20.69966 | -44.93224 | 38153 ft | 410 kts | 216° |
| 2026-05-07 16:49 | -20.77689 | -44.99259 | 38133 ft | 409 kts | 216° |
| 2026-05-07 16:49 | -20.82285 | -45.02853 | 38148 ft | 408 kts | 216° |
| 2026-05-07 16:50 | -20.86899 | -45.06466 | 38153 ft | 407 kts | 216° |
| 2026-05-07 16:50 | -20.91508 | -45.10074 | 38146 ft | 409 kts | 216° |
| 2026-05-07 16:51 | -20.96156 | -45.13723 | 38146 ft | 409 kts | 216° |
| 2026-05-07 16:51 | -21.00770 | -45.17343 | 38145 ft | 409 kts | 216° |
| 2026-05-07 16:52 | -21.05364 | -45.20950 | 38144 ft | 409 kts | 216° |
| 2026-05-07 16:52 | -21.09992 | -45.24588 | 38145 ft | 409 kts | 216° |
| 2026-05-07 16:53 | -21.14634 | -45.28238 | 38147 ft | 409 kts | 216° |
| 2026-05-07 16:53 | -21.19249 | -45.31870 | 38131 ft | 409 kts | 216° |
| 2026-05-07 16:53 | -21.21557 | -45.33689 | 37853 ft | 409 kts | 216° |
| 2026-05-07 16:54 | -21.23836 | -45.35487 | 37568 ft | 407 kts | 216° |
| 2026-05-07 16:54 | -21.26133 | -45.37297 | 37283 ft | 406 kts | 216° |
| 2026-05-07 16:54 | -21.28416 | -45.39098 | 36999 ft | 404 kts | 216° |
| 2026-05-07 16:54 | -21.30701 | -45.40898 | 36713 ft | 405 kts | 216° |
| 2026-05-07 16:55 | -21.32963 | -45.42685 | 36430 ft | 407 kts | 216° |
| 2026-05-07 16:55 | -21.35273 | -45.44508 | 36144 ft | 408 kts | 216° |
| 2026-05-07 16:55 | -21.37582 | -45.46331 | 35860 ft | 410 kts | 216° |
| 2026-05-07 16:55 | -21.39898 | -45.48161 | 35574 ft | 411 kts | 216° |
| 2026-05-07 16:56 | -21.42222 | -45.49999 | 35289 ft | 414 kts | 216° |
| 2026-05-07 16:56 | -21.44545 | -45.51836 | 35007 ft | 416 kts | 216° |
| 2026-05-07 16:56 | -21.49262 | -45.55569 | 34440 ft | 421 kts | 216° |
| 2026-05-07 16:57 | -21.51618 | -45.57435 | 34160 ft | 423 kts | 216° |
| 2026-05-07 16:57 | -21.54012 | -45.59329 | 33877 ft | 425 kts | 216° |
| 2026-05-07 16:57 | -21.56399 | -45.61220 | 33597 ft | 427 kts | 216° |
| 2026-05-07 16:57 | -21.58802 | -45.63126 | 33315 ft | 429 kts | 216° |
| 2026-05-07 16:58 | -21.61239 | -45.65058 | 33043 ft | 431 kts | 217° |
| 2026-05-07 16:58 | -21.63681 | -45.66995 | 32776 ft | 433 kts | 217° |
| 2026-05-07 16:58 | -21.66129 | -45.68938 | 32508 ft | 434 kts | 217° |
| 2026-05-07 16:58 | -21.68578 | -45.70883 | 32241 ft | 435 kts | 217° |
| 2026-05-07 16:59 | -21.71059 | -45.72855 | 31973 ft | 436 kts | 217° |
| 2026-05-07 16:59 | -21.73521 | -45.74813 | 31706 ft | 438 kts | 216° |
| 2026-05-07 16:59 | -21.75994 | -45.76780 | 31441 ft | 438 kts | 216° |
| 2026-05-07 16:59 | -21.78449 | -45.78732 | 31177 ft | 439 kts | 216° |
| 2026-05-07 17:00 | -21.80897 | -45.80681 | 30915 ft | 441 kts | 216° |
| 2026-05-07 17:00 | -21.83384 | -45.82660 | 30652 ft | 442 kts | 216° |
| 2026-05-07 17:00 | -21.85898 | -45.84662 | 30388 ft | 442 kts | 216° |
| 2026-05-07 17:00 | -21.88353 | -45.86617 | 30129 ft | 443 kts | 216° |
| 2026-05-07 17:01 | -21.90840 | -45.88600 | 29865 ft | 444 kts | 216° |
| 2026-05-07 17:01 | -21.93366 | -45.90615 | 29602 ft | 446 kts | 216° |
| 2026-05-07 17:01 | -21.95879 | -45.92622 | 29259 ft | 447 kts | 216° |
| 2026-05-07 17:01 | -21.98402 | -45.94635 | 28786 ft | 449 kts | 216° |
| 2026-05-07 17:02 | -22.00910 | -45.96637 | 28190 ft | 450 kts | 216° |
| 2026-05-07 17:02 | -22.03459 | -45.98671 | 27478 ft | 451 kts | 217° |
| 2026-05-07 17:02 | -22.05987 | -46.00691 | 26812 ft | 450 kts | 217° |
| 2026-05-07 17:02 | -22.08503 | -46.02701 | 26331 ft | 448 kts | 217° |
| 2026-05-07 17:03 | -22.11018 | -46.04712 | 25817 ft | 445 kts | 217° |
| 2026-05-07 17:03 | -22.13538 | -46.06730 | 25254 ft | 442 kts | 217° |
| 2026-05-07 17:03 | -22.16007 | -46.08705 | 24690 ft | 440 kts | 217° |
| 2026-05-07 17:03 | -22.18467 | -46.10673 | 24144 ft | 437 kts | 217° |
| 2026-05-07 17:04 | -22.20926 | -46.12641 | 23561 ft | 435 kts | 217° |
| 2026-05-07 17:04 | -22.23365 | -46.14595 | 23016 ft | 433 kts | 217° |
| 2026-05-07 17:04 | -22.25793 | -46.16541 | 22423 ft | 431 kts | 217° |
| 2026-05-07 17:04 | -22.28192 | -46.18463 | 21887 ft | 430 kts | 216° |
| 2026-05-07 17:05 | -22.30750 | -46.20137 | 21367 ft | 428 kts | 207° |
| 2026-05-07 17:05 | -22.33551 | -46.21375 | 20855 ft | 427 kts | 198° |
| 2026-05-07 17:05 | -22.36440 | -46.22131 | 20367 ft | 425 kts | 190° |
| 2026-05-07 17:05 | -22.39369 | -46.22612 | 19878 ft | 423 kts | 188° |
| 2026-05-07 17:06 | -22.42275 | -46.23039 | 19372 ft | 423 kts | 187° |
| 2026-05-07 17:06 | -22.45205 | -46.23465 | 18879 ft | 421 kts | 187° |
| 2026-05-07 17:06 | -22.48129 | -46.23901 | 18383 ft | 420 kts | 187° |
| 2026-05-07 17:06 | -22.51043 | -46.24345 | 17896 ft | 419 kts | 187° |
| 2026-05-07 17:07 | -22.53933 | -46.24791 | 17403 ft | 417 kts | 186° |
| 2026-05-07 17:07 | -22.56832 | -46.25241 | 16903 ft | 416 kts | 187° |
| 2026-05-07 17:07 | -22.59688 | -46.25686 | 16429 ft | 414 kts | 187° |
| 2026-05-07 17:07 | -22.62557 | -46.26130 | 15977 ft | 412 kts | 187° |
| 2026-05-07 17:08 | -22.65406 | -46.26572 | 15519 ft | 410 kts | 187° |
| 2026-05-07 17:08 | -22.68259 | -46.27013 | 15063 ft | 407 kts | 187° |
| 2026-05-07 17:08 | -22.71051 | -46.27447 | 14610 ft | 405 kts | 187° |
| 2026-05-07 17:08 | -22.73840 | -46.27881 | 14163 ft | 403 kts | 187° |
| 2026-05-07 17:09 | -22.76605 | -46.28435 | 13706 ft | 402 kts | 193° |
| 2026-05-07 17:09 | -22.79299 | -46.29392 | 13235 ft | 401 kts | 201° |
| 2026-05-07 17:09 | -22.81811 | -46.30704 | 12789 ft | 400 kts | 208° |
| 2026-05-07 17:09 | -22.84224 | -46.32178 | 12334 ft | 398 kts | 210° |
| 2026-05-07 17:10 | -22.87795 | -46.34425 | 11661 ft | 395 kts | 210° |
| 2026-05-07 17:10 | -22.90185 | -46.35926 | 11212 ft | 393 kts | 210° |
| 2026-05-07 17:10 | -22.92563 | -46.37412 | 10795 ft | 390 kts | 210° |
| 2026-05-07 17:10 | -22.94901 | -46.38870 | 10595 ft | 378 kts | 210° |
| 2026-05-07 17:11 | -22.97106 | -46.40241 | 10457 ft | 351 kts | 211° |
| 2026-05-07 17:11 | -22.99156 | -46.41513 | 10389 ft | 325 kts | 211° |
| 2026-05-07 17:11 | -23.01069 | -46.42700 | 10367 ft | 309 kts | 211° |
| 2026-05-07 17:11 | -23.02928 | -46.43854 | 10296 ft | 301 kts | 211° |
| 2026-05-07 17:12 | -23.04712 | -46.44963 | 10236 ft | 294 kts | 211° |
| 2026-05-07 17:12 | -23.06497 | -46.46073 | 10188 ft | 291 kts | 211° |
| 2026-05-07 17:12 | -23.08252 | -46.47165 | 10145 ft | 290 kts | 211° |
| 2026-05-07 17:12 | -23.10005 | -46.48254 | 10013 ft | 291 kts | 211° |
| 2026-05-07 17:13 | -23.11790 | -46.49365 | 9723 ft | 292 kts | 211° |
| 2026-05-07 17:13 | -23.13548 | -46.50458 | 9454 ft | 292 kts | 211° |
| 2026-05-07 17:13 | -23.15338 | -46.51572 | 9173 ft | 291 kts | 211° |
| 2026-05-07 17:13 | -23.17100 | -46.52670 | 8902 ft | 290 kts | 211° |
| 2026-05-07 17:14 | -23.18862 | -46.53769 | 8638 ft | 289 kts | 211° |
| 2026-05-07 17:14 | -23.20606 | -46.54861 | 8377 ft | 288 kts | 213° |
| 2026-05-07 17:14 | -23.22314 | -46.56039 | 8116 ft | 287 kts | 215° |
| 2026-05-07 17:14 | -23.23983 | -46.57222 | 7847 ft | 287 kts | 215° |
| 2026-05-07 17:15 | -23.25680 | -46.58432 | 7573 ft | 286 kts | 215° |
| 2026-05-07 17:15 | -23.27354 | -46.59625 | 7304 ft | 285 kts | 215° |
| 2026-05-07 17:15 | -23.29018 | -46.60807 | 7050 ft | 283 kts | 215° |
| 2026-05-07 17:15 | -23.30661 | -46.61974 | 6798 ft | 282 kts | 215° |
| 2026-05-07 17:16 | -23.32329 | -46.63159 | 6540 ft | 281 kts | 215° |
| 2026-05-07 17:16 | -23.33975 | -46.64329 | 6286 ft | 280 kts | 215° |
| 2026-05-07 17:16 | -23.35615 | -46.65493 | 6059 ft | 277 kts | 215° |
| 2026-05-07 17:16 | -23.37211 | -46.66626 | 5992 ft | 267 kts | 216° |
| 2026-05-07 17:17 | -23.38718 | -46.67695 | 5978 ft | 250 kts | 216° |
| 2026-05-07 17:17 | -23.40135 | -46.68701 | 5971 ft | 232 kts | 215° |
| 2026-05-07 17:17 | -23.41427 | -46.69615 | 5997 ft | 210 kts | 217° |
| 2026-05-07 17:17 | -23.42703 | -46.70287 | 5979 ft | 199 kts | 192° |
| 2026-05-07 17:18 | -23.44108 | -46.70267 | 5843 ft | 200 kts | 169° |
| 2026-05-07 17:18 | -23.45472 | -46.69933 | 5672 ft | 196 kts | 164° |
| 2026-05-07 17:18 | -23.46779 | -46.69564 | 5503 ft | 190 kts | 163° |
| 2026-05-07 17:18 | -23.47988 | -46.69002 | 5284 ft | 184 kts | 138° |
| 2026-05-07 17:19 | -23.48681 | -46.67900 | 5099 ft | 167 kts | 96° |
| 2026-05-07 17:19 | -23.48684 | -46.66716 | 5092 ft | 151 kts | 75° |
| 2026-05-07 17:19 | -23.48457 | -46.65587 | 5087 ft | 153 kts | 69° |
| 2026-05-07 17:19 | -23.48172 | -46.64479 | 5095 ft | 153 kts | 68° |
| 2026-05-07 17:20 | -23.47865 | -46.63346 | 5027 ft | 155 kts | 68° |
| 2026-05-07 17:20 | -23.47557 | -46.62226 | 4826 ft | 153 kts | 68° |
| 2026-05-07 17:20 | -23.47251 | -46.61111 | 4634 ft | 153 kts | 69° |
| 2026-05-07 17:20 | -23.46944 | -46.59991 | 4442 ft | 154 kts | 69° |
| 2026-05-07 17:21 | -23.46637 | -46.58867 | 4247 ft | 152 kts | 69° |
| 2026-05-07 17:21 | -23.46338 | -46.57764 | 4039 ft | 152 kts | 68° |
| 2026-05-07 17:21 | -23.46027 | -46.56630 | 3859 ft | 156 kts | 69° |
| 2026-05-07 17:21 | -23.45725 | -46.55508 | 3654 ft | 153 kts | 68° |
| 2026-05-07 17:22 | -23.45420 | -46.54384 | 3473 ft | 153 kts | 69° |
| 2026-05-07 17:22 | -23.45112 | -46.53249 | 3298 ft | 153 kts | 70° |
| 2026-05-07 17:22 | -23.44813 | -46.52148 | 3097 ft | 149 kts | 71° |
| 2026-05-07 17:22 | -23.44537 | -46.51062 | 2871 ft | 150 kts | 68° |
| 2026-05-07 17:23 | -23.44230 | -46.49958 | 2683 ft | 154 kts | 69° |
| 2026-05-07 17:23 | -23.43929 | -46.48839 | 2496 ft | 153 kts | 69° |
| 2026-05-07 17:23 | -23.43644 | -46.47826 | 2476 ft | 104 kts | 78° |
| 2026-05-07 17:23 | -23.43524 | -46.47366 | 2475 ft | 36 kts | 74° |
| 2026-05-07 17:24 | -23.43454 | -46.47118 | 2472 ft | 32 kts | 72° |
| 2026-05-07 17:24 | -23.43378 | -46.46946 | 2470 ft | 24 kts | 53° |
| 2026-05-07 17:24 | -23.43255 | -46.46809 | 2465 ft | 25 kts | 44° |
| 2026-05-07 17:24 | -23.43159 | -46.46722 | 2460 ft | 13 kts | 25° |
| 2026-05-07 17:25 | -23.43124 | -46.46714 | 2460 ft | 0 kts | 355° |
| 2026-05-07 17:25 | -23.43110 | -46.46716 | 2459 ft | 4 kts | 350° |
| 2026-05-07 17:26 | -23.43064 | -46.46727 | 2459 ft | 12 kts | 346° |
| 2026-05-07 17:26 | -23.42949 | -46.46763 | 2456 ft | 18 kts | 343° |
| 2026-05-07 17:26 | -23.42859 | -46.46809 | 2454 ft | 8 kts | 294° |
| 2026-05-07 17:26 | -23.42862 | -46.46863 | 2455 ft | 7 kts | 262° |
| 2026-05-07 17:27 | -23.42875 | -46.46923 | 2455 ft | 9 kts | 255° |
| 2026-05-07 17:27 | -23.42896 | -46.47002 | 2456 ft | 15 kts | 253° |
| 2026-05-07 17:27 | -23.42938 | -46.47162 | 2455 ft | 28 kts | 254° |
| 2026-05-07 17:27 | -23.42995 | -46.47367 | 2456 ft | 27 kts | 255° |
| 2026-05-07 17:28 | -23.43046 | -46.47562 | 2457 ft | 25 kts | 254° |
| 2026-05-07 17:28 | -23.43096 | -46.47742 | 2457 ft | 24 kts | 253° |
| 2026-05-07 17:28 | -23.43143 | -46.47919 | 2456 ft | 23 kts | 254° |
| 2026-05-07 17:28 | -23.43189 | -46.48087 | 2456 ft | 22 kts | 253° |
| 2026-05-07 17:29 | -23.43232 | -46.48245 | 2456 ft | 20 kts | 255° |
| 2026-05-07 17:29 | -23.43256 | -46.48352 | 2456 ft | 10 kts | 279° |
| 2026-05-07 17:29 | -23.43188 | -46.48402 | 2454 ft | 13 kts | 342° |
| 2026-05-07 17:29 | -23.43089 | -46.48434 | 2453 ft | 14 kts | 344° |
| 2026-05-07 17:30 | -23.43014 | -46.48466 | 2453 ft | 12 kts | 315° |
| 2026-05-07 17:30 | -23.42997 | -46.48531 | 2452 ft | 12 kts | 279° |
| 2026-05-07 17:30 | -23.42988 | -46.48627 | 2452 ft | 12 kts | 275° |
| 2026-05-07 17:30 | -23.42980 | -46.48712 | 2452 ft | 8 kts | 279° |
| 2026-05-07 17:31 | -23.42940 | -46.48756 | 2452 ft | 9 kts | 351° |
| 2026-05-07 17:31 | -23.42877 | -46.48753 | 2453 ft | 8 kts | 5° |
| 2026-05-07 17:31 | -23.42815 | -46.48747 | 2454 ft | 9 kts | 6° |
| 2026-05-07 17:31 | -23.42751 | -46.48739 | 2454 ft | 8 kts | 6° |
| 2026-05-07 17:32 | -23.42716 | -46.48742 | 2454 ft | 3 kts | 326° |
| 2026-05-07 17:32 | -23.42700 | -46.48777 | 2454 ft | 5 kts | 283° |
| 2026-05-07 17:32 | -23.42695 | -46.48807 | 2453 ft | 0 kts | 278° |
| 2026-05-07 17:32 | -23.42694 | -46.48812 | 2453 ft | 0 kts | 277° |